createdAt,value
2019-01-24T00:01:59.197Z,26.67
2019-01-24T00:04:25.744Z,28.70
2019-01-24T00:06:52.372Z,27.00
2019-01-24T00:09:18.922Z,27.73
2019-01-24T00:11:45.542Z,27.93
2019-01-24T00:14:12.100Z,27.73
2019-01-24T00:16:38.700Z,29.23
2019-01-24T00:19:05.260Z,27.40
2019-01-24T00:21:31.918Z,27.93
2019-01-24T00:23:58.575Z,27.73
2019-01-24T00:26:25.216Z,27.13
2019-01-24T00:28:51.794Z,28.53
2019-01-24T00:31:18.415Z,27.20
2019-01-24T00:33:45.057Z,25.87
2019-01-24T00:36:11.677Z,27.97
2019-01-24T00:38:38.233Z,28.77
2019-01-24T00:41:04.877Z,27.83
2019-01-24T00:43:31.901Z,28.20
2019-01-24T00:45:58.541Z,27.33
2019-01-24T00:48:25.087Z,28.47
2019-01-24T00:50:51.609Z,28.57
2019-01-24T00:53:18.166Z,28.70
2019-01-24T00:55:44.816Z,28.80
2019-01-24T00:58:11.355Z,28.87
2019-01-24T01:00:37.879Z,26.63
2019-01-24T01:03:04.593Z,28.20
2019-01-24T01:05:31.142Z,28.10
2019-01-24T01:07:57.665Z,27.40
2019-01-24T01:10:24.110Z,29.50
2019-01-24T01:12:50.532Z,29.13
2019-01-24T01:15:18.173Z,29.80
2019-01-24T01:17:45.312Z,29.17
2019-01-24T01:20:14.781Z,29.30
2019-01-24T01:22:41.214Z,28.47
2019-01-24T01:25:10.378Z,30.50
2019-01-24T01:27:36.997Z,30.10
2019-01-24T01:30:07.454Z,30.87
2019-01-24T01:32:33.872Z,29.77
2019-01-24T01:35:00.432Z,28.40
2019-01-24T01:37:26.968Z,30.57
2019-01-24T01:39:53.493Z,30.80
2019-01-24T01:42:20.019Z,31.33
2019-01-24T01:44:46.572Z,29.17
2019-01-24T01:47:13.193Z,29.80
2019-01-24T01:49:39.771Z,32.60
2019-01-24T01:52:06.292Z,31.17
2019-01-24T01:54:32.949Z,29.60
2019-01-24T01:56:59.476Z,32.53
2019-01-24T01:59:26.037Z,29.77
2019-01-24T02:01:52.558Z,30.90
2019-01-24T02:04:19.121Z,28.97
2019-01-24T02:06:45.741Z,30.50
2019-01-24T02:09:12.284Z,33.90
2019-01-24T02:11:38.906Z,31.50
2019-01-24T02:14:05.690Z,33.83
2019-01-24T02:16:32.112Z,30.53
2019-01-24T02:18:58.657Z,31.70
2019-01-24T02:21:25.080Z,30.70
2019-01-24T02:23:51.634Z,30.40
2019-01-24T02:26:18.149Z,29.70
2019-01-24T02:28:44.772Z,29.10
2019-01-24T02:31:11.416Z,30.90
2019-01-24T02:33:38.029Z,30.47
2019-01-24T02:36:04.578Z,29.50
2019-01-24T02:38:31.201Z,29.97
2019-01-24T02:40:57.846Z,29.17
2019-01-24T02:43:24.370Z,28.80
2019-01-24T02:45:50.919Z,29.30
2019-01-24T02:48:17.440Z,29.80
2019-01-24T02:50:43.998Z,27.97
2019-01-24T02:53:10.519Z,29.07
2019-01-24T02:55:37.064Z,28.87
2019-01-24T02:58:03.683Z,29.83
2019-01-24T03:00:30.229Z,29.27
2019-01-24T03:02:56.909Z,30.03
2019-01-24T03:05:23.640Z,29.17
2019-01-24T03:07:50.646Z,28.40
2019-01-24T03:10:17.399Z,28.70
2019-01-24T03:12:44.429Z,28.60
2019-01-24T03:15:13.615Z,28.27
2019-01-24T03:17:40.222Z,28.17
2019-01-24T03:20:08.676Z,29.03
2019-01-24T03:22:35.291Z,30.63
2019-01-24T03:25:04.945Z,28.00
2019-01-24T03:27:31.488Z,29.83
2019-01-24T03:29:58.035Z,27.93
2019-01-24T03:32:25.050Z,27.63
2019-01-24T03:34:53.302Z,28.07
2019-01-24T03:37:19.920Z,28.83
2019-01-24T03:39:46.476Z,29.07
2019-01-24T03:42:13.001Z,29.03
2019-01-24T03:44:39.553Z,30.23
2019-01-24T03:47:06.074Z,29.37
2019-01-24T03:49:32.596Z,29.40
2019-01-24T03:51:59.245Z,27.30
2019-01-24T03:54:26.667Z,27.57
2019-01-24T03:56:54.319Z,27.63
2019-01-24T03:59:20.949Z,26.90
2019-01-24T04:01:48.000Z,26.40
2019-01-24T04:04:14.627Z,27.83
2019-01-24T04:06:41.183Z,26.87
2019-01-24T04:09:08.500Z,28.80
2019-01-24T04:11:35.545Z,30.67
2019-01-24T04:14:02.168Z,28.23
2019-01-24T04:16:28.921Z,29.20
2019-01-24T04:18:55.545Z,27.30
2019-01-24T04:21:23.377Z,28.20
2019-01-24T04:23:50.108Z,29.17
2019-01-24T04:26:16.666Z,29.17
2019-01-24T04:28:44.114Z,27.87
2019-01-24T04:31:10.657Z,29.00
2019-01-24T04:33:37.286Z,30.80
2019-01-24T04:36:04.735Z,28.40
2019-01-24T04:38:31.356Z,28.03
2019-01-24T04:40:57.897Z,27.17
2019-01-24T04:43:24.520Z,28.40
2019-01-24T04:45:51.083Z,28.63
2019-01-24T04:48:17.599Z,27.93
2019-01-24T04:50:44.141Z,28.57
2019-01-24T04:53:10.668Z,27.40
2019-01-24T04:55:37.224Z,28.30
2019-01-24T04:58:03.955Z,27.23
2019-01-24T05:00:30.633Z,28.50
2019-01-24T05:02:57.177Z,27.83
2019-01-24T05:05:28.019Z,27.40
2019-01-24T05:07:52.648Z,28.70
2019-01-24T05:10:19.192Z,29.27
2019-01-24T05:12:45.709Z,28.13
2019-01-24T05:15:12.829Z,25.60
2019-01-24T05:17:39.377Z,30.10
2019-01-24T05:20:09.121Z,28.40
2019-01-24T05:22:35.860Z,28.90
2019-01-24T05:25:05.784Z,30.20
2019-01-24T05:27:34.029Z,28.70
2019-01-24T05:30:06.054Z,28.50
2019-01-24T05:32:32.698Z,28.67
2019-01-24T05:34:59.322Z,31.47
2019-01-24T05:37:25.879Z,28.80
2019-01-24T05:39:52.496Z,30.40
2019-01-24T05:42:19.153Z,31.47
2019-01-24T05:44:45.890Z,30.27
2019-01-24T05:47:12.436Z,30.40
2019-01-24T05:49:39.062Z,31.30
2019-01-24T05:52:05.646Z,32.50
2019-01-24T05:54:32.169Z,32.43
2019-01-24T05:56:58.813Z,28.20
2019-01-24T05:59:25.334Z,30.43
2019-01-24T06:01:52.520Z,32.27
2019-01-24T06:04:19.041Z,31.77
2019-01-24T06:06:45.786Z,31.57
2019-01-24T06:09:12.305Z,30.00
2019-01-24T06:11:38.857Z,31.00
2019-01-24T06:14:05.373Z,32.63
2019-01-24T06:16:32.122Z,33.30
2019-01-24T06:18:58.734Z,30.80
2019-01-24T06:21:25.386Z,31.17
2019-01-24T06:23:51.911Z,34.50
2019-01-24T06:26:18.551Z,32.13
2019-01-24T06:28:45.172Z,31.90
2019-01-24T06:31:11.922Z,32.03
2019-01-24T06:33:38.646Z,31.00
2019-01-24T06:36:05.300Z,31.63
2019-01-24T06:38:31.917Z,30.40
2019-01-24T06:40:58.528Z,31.77
2019-01-24T06:43:25.118Z,32.43
2019-01-24T06:45:51.741Z,31.93
2019-01-24T06:48:18.279Z,30.87
2019-01-24T06:50:45.891Z,30.90
2019-01-24T06:53:12.581Z,30.50
2019-01-24T06:55:39.321Z,30.80
2019-01-24T06:58:06.066Z,29.23
2019-01-24T07:00:32.786Z,30.07
2019-01-24T07:02:59.441Z,26.87
2019-01-24T07:05:26.057Z,26.93
2019-01-24T07:07:52.603Z,29.67
2019-01-24T07:10:21.763Z,27.07
2019-01-24T07:12:48.434Z,27.40
2019-01-24T07:15:17.813Z,26.47
2019-01-24T07:17:44.541Z,26.17
2019-01-24T07:20:15.672Z,26.70
2019-01-24T07:22:42.408Z,24.73
2019-01-24T07:25:12.536Z,27.93
2019-01-24T07:27:39.087Z,25.97
2019-01-24T07:30:11.936Z,27.30
2019-01-24T07:32:38.673Z,27.57
2019-01-24T07:35:08.694Z,28.43
2019-01-24T07:37:35.241Z,28.23
2019-01-24T07:40:04.873Z,28.10
2019-01-24T07:42:31.399Z,25.93
2019-01-24T07:44:57.957Z,26.57
2019-01-24T07:47:24.510Z,26.97
2019-01-24T07:49:51.026Z,27.50
2019-01-24T07:52:17.584Z,27.00
2019-01-24T07:54:44.213Z,27.37
2019-01-24T07:57:10.758Z,29.53
2019-01-24T07:59:37.373Z,28.40
2019-01-24T08:02:03.951Z,29.10
2019-01-24T08:04:30.577Z,28.97
2019-01-24T08:06:57.104Z,29.60
2019-01-24T08:09:23.857Z,26.77
2019-01-24T08:11:50.576Z,27.57
2019-01-24T08:14:17.133Z,27.80
2019-01-24T08:16:43.762Z,26.47
2019-01-24T08:19:10.353Z,26.17
2019-01-24T08:21:36.861Z,27.13
2019-01-24T08:24:03.508Z,25.77
2019-01-24T08:26:30.021Z,28.73
2019-01-24T08:28:56.564Z,25.07
2019-01-24T08:31:23.090Z,27.10
2019-01-24T08:33:49.832Z,25.37
2019-01-24T08:36:16.447Z,26.10
2019-01-24T08:38:43.512Z,26.40
2019-01-24T08:41:10.362Z,24.73
2019-01-24T08:43:36.823Z,25.17
2019-01-24T08:46:03.342Z,25.87
2019-01-24T08:48:29.895Z,26.43
2019-01-24T08:50:56.417Z,27.03
2019-01-24T08:53:23.074Z,27.43
2019-01-24T08:55:49.692Z,26.00
2019-01-24T08:58:16.241Z,26.40
2019-01-24T09:00:42.768Z,26.03
2019-01-24T09:03:11.307Z,25.77
2019-01-24T09:05:37.925Z,26.50
2019-01-24T09:08:05.140Z,26.10
2019-01-24T09:10:33.568Z,27.33
2019-01-24T09:13:00.844Z,25.33
2019-01-24T09:15:29.235Z,26.50
2019-01-24T09:17:55.936Z,26.03
2019-01-24T09:20:22.689Z,27.20
2019-01-24T09:22:55.107Z,27.07
2019-01-24T09:25:17.682Z,27.17
2019-01-24T09:27:44.304Z,26.00
2019-01-24T09:30:20.139Z,28.40
2019-01-24T09:32:46.718Z,27.13
2019-01-24T09:35:14.042Z,27.07
2019-01-24T09:37:40.661Z,27.53
2019-01-24T09:40:10.325Z,28.17
2019-01-24T09:42:36.847Z,27.37
2019-01-24T09:45:07.234Z,27.40
2019-01-24T09:47:33.857Z,28.03
2019-01-24T09:50:00.408Z,29.73
2019-01-24T09:52:26.837Z,28.00
2019-01-24T09:54:53.385Z,29.47
2019-01-24T09:57:19.908Z,29.73
2019-01-24T09:59:46.464Z,28.93
2019-01-24T10:02:12.991Z,28.90
2019-01-24T10:04:39.535Z,29.07
2019-01-24T10:07:06.092Z,29.00
2019-01-24T10:09:32.636Z,31.03
2019-01-24T10:11:59.156Z,28.80
2019-01-24T10:14:25.714Z,29.33
2019-01-24T10:16:52.338Z,28.57
2019-01-24T10:19:18.977Z,27.03
2019-01-24T10:21:45.606Z,28.43
2019-01-24T10:24:12.155Z,28.70
2019-01-24T10:26:38.669Z,28.13
2019-01-24T10:29:05.492Z,27.63
2019-01-24T10:31:32.214Z,26.70
2019-01-24T10:33:58.952Z,28.70
2019-01-24T10:36:25.581Z,26.53
2019-01-24T10:38:52.229Z,28.57
2019-01-24T10:41:18.850Z,26.50
2019-01-24T10:43:45.497Z,26.90
2019-01-24T10:46:12.122Z,28.87
2019-01-24T10:48:38.681Z,28.27
2019-01-24T10:51:05.310Z,28.80
2019-01-24T10:53:31.932Z,27.40
2019-01-24T10:55:58.581Z,26.47
2019-01-24T10:58:25.200Z,26.23
2019-01-24T11:00:52.962Z,28.23
2019-01-24T11:03:20.168Z,28.23
2019-01-24T11:05:46.825Z,25.60
2019-01-24T11:08:13.443Z,27.10
2019-01-24T11:10:40.035Z,25.17
2019-01-24T11:13:06.510Z,26.63
2019-01-24T11:15:33.053Z,27.00
2019-01-24T11:17:59.573Z,26.03
2019-01-24T11:20:26.133Z,25.43
2019-01-24T11:22:52.655Z,26.50
2019-01-24T11:25:23.728Z,25.50
2019-01-24T11:27:50.338Z,24.83
2019-01-24T11:30:19.534Z,24.67
2019-01-24T11:32:46.053Z,23.70
2019-01-24T11:35:15.508Z,22.20
2019-01-24T11:37:41.932Z,24.20
2019-01-24T11:40:16.601Z,23.30
2019-01-24T11:42:43.938Z,24.00
2019-01-24T11:45:12.515Z,24.67
2019-01-24T11:47:39.026Z,21.83
2019-01-24T11:50:09.876Z,23.10
2019-01-24T11:52:36.604Z,19.37
2019-01-24T11:55:05.654Z,22.53
2019-01-24T11:57:32.284Z,21.27
2019-01-24T11:59:58.933Z,23.53
2019-01-24T12:02:25.550Z,22.70
2019-01-24T12:04:53.296Z,22.77
2019-01-24T12:07:20.020Z,22.03
2019-01-24T12:09:46.721Z,23.13
2019-01-24T12:12:13.233Z,22.17
2019-01-24T12:14:39.878Z,23.43
2019-01-24T12:17:06.401Z,22.70
2019-01-24T12:19:33.123Z,23.90
2019-01-24T12:21:59.852Z,23.30
2019-01-24T12:24:26.578Z,23.20
2019-01-24T12:26:53.129Z,23.30
2019-01-24T12:29:19.653Z,22.37
2019-01-24T12:31:46.410Z,23.70
2019-01-24T12:34:13.033Z,21.80
2019-01-24T12:36:39.627Z,22.30
2019-01-24T12:39:06.854Z,22.80
2019-01-24T12:41:33.513Z,23.77
2019-01-24T12:44:00.098Z,23.73
2019-01-24T12:46:26.608Z,23.20
2019-01-24T12:48:53.186Z,24.67
2019-01-24T12:51:19.802Z,25.33
2019-01-24T12:53:46.504Z,23.67
2019-01-24T12:56:13.043Z,23.43
2019-01-24T12:58:39.593Z,23.83
2019-01-24T13:01:06.114Z,24.40
2019-01-24T13:03:32.684Z,22.87
2019-01-24T13:05:59.307Z,24.00
2019-01-24T13:08:25.865Z,24.30
2019-01-24T13:10:52.379Z,24.67
2019-01-24T13:13:18.937Z,24.30
2019-01-24T13:15:45.565Z,23.17
2019-01-24T13:18:12.436Z,24.03
2019-01-24T13:20:39.118Z,23.23
2019-01-24T13:23:05.646Z,24.47
2019-01-24T13:25:33.326Z,24.30
2019-01-24T13:27:59.893Z,23.50
2019-01-24T13:30:28.776Z,24.60
2019-01-24T13:32:55.639Z,23.27
2019-01-24T13:35:22.566Z,24.57
2019-01-24T13:37:50.213Z,25.20
2019-01-24T13:40:19.966Z,25.50
2019-01-24T13:42:47.422Z,24.37
2019-01-24T13:45:20.336Z,25.10
2019-01-24T13:47:47.554Z,25.90
2019-01-24T13:50:16.590Z,25.47
2019-01-24T13:52:43.987Z,24.47
2019-01-24T13:55:12.177Z,25.50
2019-01-24T13:57:40.010Z,24.80
2019-01-24T14:00:19.445Z,24.60
2019-01-24T14:02:48.867Z,25.20
2019-01-24T14:05:19.170Z,22.87
2019-01-24T14:07:45.833Z,24.90
2019-01-24T14:10:15.636Z,24.10
2019-01-24T14:12:42.919Z,24.83
2019-01-24T14:15:13.300Z,23.67
2019-01-24T14:17:40.701Z,24.80
2019-01-24T14:20:20.083Z,26.43
2019-01-24T14:22:47.793Z,24.37
2019-01-24T14:25:19.297Z,23.47
2019-01-24T14:27:47.008Z,25.70
2019-01-24T14:30:26.472Z,25.50
2019-01-24T14:32:54.413Z,24.33
2019-01-24T14:35:22.292Z,22.30
2019-01-24T14:37:50.092Z,22.83
2019-01-24T14:40:17.763Z,24.23
2019-01-24T14:42:45.460Z,23.30
2019-01-24T14:45:18.256Z,24.23
2019-01-24T14:47:45.972Z,23.23
2019-01-24T14:50:18.218Z,22.57
2019-01-24T14:52:45.999Z,23.80
2019-01-24T14:55:13.617Z,24.57
2019-01-24T14:57:41.481Z,24.40
2019-01-24T15:00:27.129Z,25.23
2019-01-24T15:02:54.673Z,22.90
2019-01-24T15:05:22.625Z,23.67
2019-01-24T15:07:50.329Z,24.07
2019-01-24T15:10:18.110Z,25.20
2019-01-24T15:12:45.882Z,25.30
2019-01-24T15:15:18.124Z,23.60
2019-01-24T15:17:46.321Z,25.43
2019-01-24T15:20:16.182Z,25.00
2019-01-24T15:22:44.127Z,24.43
2019-01-24T15:25:13.230Z,22.60
2019-01-24T15:27:40.962Z,21.80
2019-01-24T15:30:11.665Z,21.00
2019-01-24T15:32:39.411Z,21.97
2019-01-24T15:35:07.733Z,22.73
2019-01-24T15:37:35.577Z,23.03
2019-01-24T15:40:06.357Z,20.53
2019-01-24T15:42:36.198Z,20.33
2019-01-24T15:45:07.145Z,22.40
2019-01-24T15:47:35.020Z,20.70
2019-01-24T15:50:05.557Z,20.03
2019-01-24T15:52:34.172Z,21.23
2019-01-24T15:55:02.533Z,19.57
2019-01-24T15:57:30.689Z,21.33
2019-01-24T15:59:59.102Z,21.20
2019-01-24T16:02:28.966Z,22.23
2019-01-24T16:04:56.791Z,21.33
2019-01-24T16:07:25.312Z,19.97
2019-01-24T16:09:53.639Z,21.77
2019-01-24T16:12:21.872Z,20.87
2019-01-24T16:14:50.402Z,22.23
2019-01-24T16:17:18.521Z,22.77
2019-01-24T16:19:46.503Z,20.30
2019-01-24T16:22:14.708Z,22.23
2019-01-24T16:24:43.040Z,21.90
2019-01-24T16:27:11.880Z,22.97
2019-01-24T16:29:40.103Z,21.33
2019-01-24T16:32:08.337Z,21.57
2019-01-24T16:34:36.658Z,21.50
2019-01-24T16:37:04.433Z,19.80
2019-01-24T16:39:32.554Z,20.90
2019-01-24T16:42:01.962Z,21.20
2019-01-24T16:44:30.305Z,21.97
2019-01-24T16:46:58.572Z,21.80
2019-01-24T16:49:26.878Z,21.53
2019-01-24T16:51:55.213Z,22.20
2019-01-24T16:54:23.633Z,22.50
2019-01-24T16:56:51.873Z,21.27
2019-01-24T16:59:20.181Z,22.37
2019-01-24T17:01:48.938Z,22.73
2019-01-24T17:04:17.350Z,23.00
2019-01-24T17:06:45.317Z,21.30
2019-01-24T17:09:13.764Z,21.50
2019-01-24T17:11:42.431Z,22.60
2019-01-24T17:14:10.719Z,22.60
2019-01-24T17:16:38.834Z,23.00
2019-01-24T17:19:06.916Z,22.70
2019-01-24T17:21:35.489Z,21.97
2019-01-24T17:24:04.338Z,21.10
2019-01-24T17:26:32.342Z,21.87
2019-01-24T17:29:00.684Z,23.53
2019-01-24T17:31:29.033Z,22.27
2019-01-24T17:33:57.337Z,20.03
2019-01-24T17:36:25.669Z,22.23
2019-01-24T17:38:54.198Z,20.30
2019-01-24T17:41:22.782Z,19.43
2019-01-24T17:43:51.490Z,19.83
2019-01-24T17:46:19.785Z,20.30
2019-01-24T17:48:48.435Z,19.40
2019-01-24T17:51:16.754Z,19.60
2019-01-24T17:53:45.293Z,20.53
2019-01-24T17:56:15.306Z,21.37
2019-01-24T17:58:43.615Z,19.40
2019-01-24T18:01:12.006Z,20.30
2019-01-24T18:03:40.893Z,21.20
2019-01-24T18:06:09.425Z,20.00
2019-01-24T18:08:38.472Z,19.43
2019-01-24T18:11:07.246Z,20.90
2019-01-24T18:13:36.145Z,20.10
2019-01-24T18:16:04.218Z,19.90
2019-01-24T18:18:33.416Z,20.03
2019-01-24T18:21:02.257Z,20.07
2019-01-24T18:23:30.995Z,19.97
2019-01-24T18:25:59.990Z,20.77
2019-01-24T18:28:29.653Z,19.57
2019-01-24T18:30:58.696Z,20.87
2019-01-24T18:33:27.533Z,20.60
2019-01-24T18:35:56.021Z,20.30
2019-01-24T18:38:24.962Z,21.23
2019-01-24T18:40:53.925Z,20.17
2019-01-24T18:43:22.828Z,20.07
2019-01-24T18:45:52.830Z,19.83
2019-01-24T18:48:22.053Z,21.37
2019-01-24T18:50:51.856Z,22.13
2019-01-24T18:53:20.694Z,19.57
2019-01-24T18:55:49.129Z,20.30
2019-01-24T18:58:17.922Z,19.70
2019-01-24T19:00:46.452Z,19.37
2019-01-24T19:03:15.193Z,22.73
2019-01-24T19:05:44.075Z,20.83
2019-01-24T19:08:14.127Z,20.70
2019-01-24T19:10:43.084Z,20.93
2019-01-24T19:13:12.331Z,21.13
2019-01-24T19:15:41.372Z,21.17
2019-01-24T19:18:10.768Z,20.30
2019-01-24T19:20:39.675Z,20.93
2019-01-24T19:23:08.671Z,20.23
2019-01-24T19:25:37.814Z,21.17
2019-01-24T19:28:06.709Z,21.80
2019-01-24T19:30:35.937Z,20.17
2019-01-24T19:33:06.655Z,21.90
2019-01-24T19:35:35.854Z,19.63
2019-01-24T19:38:04.965Z,20.53
2019-01-24T19:40:34.575Z,20.17
2019-01-24T19:43:03.575Z,22.97
2019-01-24T19:45:33.176Z,20.90
2019-01-24T19:48:02.189Z,21.07
2019-01-24T19:50:31.340Z,20.80
2019-01-24T19:53:00.123Z,21.10
2019-01-24T19:55:29.058Z,22.10
2019-01-24T19:57:58.237Z,21.33
2019-01-24T20:00:31.545Z,20.93
2019-01-24T20:03:00.543Z,21.07
2019-01-24T20:05:29.997Z,21.40
2019-01-24T20:07:58.832Z,20.63
2019-01-24T20:10:28.638Z,20.77
2019-01-24T20:12:57.756Z,20.40
2019-01-24T20:15:27.398Z,21.07
2019-01-24T20:17:55.813Z,21.40
2019-01-24T20:20:24.556Z,21.07
2019-01-24T20:22:53.569Z,21.33
2019-01-24T20:25:24.498Z,20.20
2019-01-24T20:27:53.444Z,20.27
2019-01-24T20:30:30.370Z,19.83
2019-01-24T20:32:59.418Z,20.70
2019-01-24T20:35:42.314Z,21.23
2019-01-24T20:38:11.408Z,21.07
2019-01-24T20:40:40.687Z,21.87
2019-01-24T20:43:10.654Z,20.90
2019-01-24T20:45:39.389Z,20.10
2019-01-24T20:48:08.386Z,22.60
2019-01-24T20:50:36.616Z,21.83
2019-01-24T20:53:05.185Z,20.57
2019-01-24T20:55:33.732Z,20.57
2019-01-24T20:58:03.676Z,19.07
2019-01-24T21:00:32.287Z,21.10
2019-01-24T21:03:00.705Z,20.03
2019-01-24T21:05:29.184Z,19.80
2019-01-24T21:07:57.615Z,21.03
2019-01-24T21:10:27.799Z,20.27
2019-01-24T21:12:56.513Z,21.50
2019-01-24T21:15:25.361Z,21.67
2019-01-24T21:17:53.681Z,22.73
2019-01-24T21:20:28.979Z,21.60
2019-01-24T21:22:56.901Z,21.50
2019-01-24T21:25:25.125Z,19.97
2019-01-24T21:27:53.074Z,20.43
2019-01-24T21:30:32.096Z,24.43
2019-01-24T21:33:00.362Z,24.83
2019-01-24T21:35:28.673Z,26.17
2019-01-24T21:37:56.648Z,25.10
2019-01-24T21:40:24.588Z,25.40
2019-01-24T21:42:52.282Z,25.47
2019-01-24T21:45:29.282Z,27.17
2019-01-24T21:47:57.118Z,29.60
2019-01-24T21:50:26.945Z,31.60
2019-01-24T21:52:55.616Z,31.63
2019-01-24T21:55:25.272Z,30.40
2019-01-24T21:57:53.556Z,31.70
2019-01-24T22:00:23.433Z,30.20
2019-01-24T22:02:51.181Z,30.23
2019-01-24T22:05:18.853Z,32.37
2019-01-24T22:07:46.650Z,32.97
2019-01-24T22:10:25.827Z,33.87
2019-01-24T22:12:53.226Z,32.87
2019-01-24T22:15:23.891Z,34.17
2019-01-24T22:17:50.824Z,32.40
2019-01-24T22:20:17.508Z,34.63
2019-01-24T22:22:44.437Z,34.07
2019-01-24T22:25:19.460Z,34.40
2019-01-24T22:27:46.769Z,33.67
2019-01-24T22:30:17.160Z,33.00
2019-01-24T22:32:43.745Z,31.70
2019-01-24T22:35:10.671Z,33.20
2019-01-24T22:37:37.241Z,33.00
2019-01-24T22:40:07.667Z,30.23
2019-01-24T22:42:34.342Z,34.23
2019-01-24T22:45:00.878Z,32.30
2019-01-24T22:47:27.536Z,33.90
2019-01-24T22:49:54.057Z,34.07
2019-01-24T22:52:20.633Z,34.33
2019-01-24T22:54:47.150Z,34.30
2019-01-24T22:57:13.752Z,33.87
2019-01-24T22:59:40.328Z,33.90
2019-01-24T23:02:07.309Z,34.40
2019-01-24T23:04:35.561Z,33.87
2019-01-24T23:07:03.940Z,33.90
2019-01-24T23:09:32.157Z,33.00
2019-01-24T23:11:59.719Z,31.97
2019-01-24T23:14:27.017Z,31.90
2019-01-24T23:16:55.241Z,33.30
2019-01-24T23:19:21.992Z,32.10
2019-01-24T23:21:49.586Z,32.53
2019-01-24T23:24:16.881Z,33.93
2019-01-24T23:26:43.550Z,32.07
2019-01-24T23:29:10.224Z,31.97
2019-01-24T23:31:36.858Z,32.73
2019-01-24T23:34:04.029Z,31.50
2019-01-24T23:36:30.696Z,34.73
2019-01-24T23:38:57.115Z,32.30
2019-01-24T23:41:23.777Z,32.80
2019-01-24T23:43:50.402Z,32.37
2019-01-24T23:46:16.986Z,32.83
2019-01-24T23:48:43.696Z,33.30
2019-01-24T23:51:10.316Z,34.37
2019-01-24T23:53:37.088Z,31.57
2019-01-24T23:56:03.695Z,34.57
2019-01-24T23:58:30.320Z,32.17
